sensor_id;sensor_type;location;lat;lon;timestamp;pressure;altitude;pressure_sealevel;temperature;humidity
48200;BME280;33990;44.602;10.976;2022-08-01T00:00:06;100890.91;;;27.66;44.04
48200;BME280;33990;44.602;10.976;2022-08-01T00:02:36;100887.19;;;27.67;43.93
48200;BME280;33990;44.602;10.976;2022-08-01T00:05:06;100887.19;;;27.67;44.22
48200;BME280;33990;44.602;10.976;2022-08-01T00:07:35;100886.16;;;27.68;44.31
48200;BME280;33990;44.602;10.976;2022-08-01T00:10:04;100895.81;;;27.71;44.01
48200;BME280;33990;44.602;10.976;2022-08-01T00:12:31;100887.63;;;27.71;44.10
48200;BME280;33990;44.602;10.976;2022-08-01T00:14:59;100889.34;;;27.72;44.05
48200;BME280;33990;44.602;10.976;2022-08-01T00:17:26;100883.91;;;27.72;44.36
48200;BME280;33990;44.602;10.976;2022-08-01T00:19:53;100887.47;;;27.72;44.01
48200;BME280;33990;44.602;10.976;2022-08-01T00:22:24;100885.59;;;27.73;44.08
48200;BME280;33990;44.602;10.976;2022-08-01T00:24:51;100887.31;;;27.74;44.53
48200;BME280;33990;44.602;10.976;2022-08-01T00:27:18;100892.75;;;27.74;44.63
48200;BME280;33990;44.602;10.976;2022-08-01T00:29:46;100892.59;;;27.75;44.55
48200;BME280;33990;44.602;10.976;2022-08-01T00:32:33;100883.53;;;27.75;44.53
48200;BME280;33990;44.602;10.976;2022-08-01T00:35:01;100891.72;;;27.75;44.51
48200;BME280;33990;44.602;10.976;2022-08-01T00:37:28;100882.53;;;27.76;44.53
48200;BME280;33990;44.602;10.976;2022-08-01T00:39:56;100893.44;;;27.76;44.70
48200;BME280;33990;44.602;10.976;2022-08-01T00:42:23;100886.94;;;27.77;44.79
48200;BME280;33990;44.602;10.976;2022-08-01T00:44:50;100887.97;;;27.76;44.56
48200;BME280;33990;44.602;10.976;2022-08-01T00:47:18;100895.09;;;27.77;44.55
48200;BME280;33990;44.602;10.976;2022-08-01T00:49:45;100890.50;;;27.77;44.79
48200;BME280;33990;44.602;10.976;2022-08-01T00:52:13;100891.53;;;27.76;44.61
48200;BME280;33990;44.602;10.976;2022-08-01T00:54:40;100891.34;;;27.78;44.86
48200;BME280;33990;44.602;10.976;2022-08-01T00:57:08;100888.63;;;27.78;44.63
48200;BME280;33990;44.602;10.976;2022-08-01T00:59:37;100898.66;;;27.77;44.85
48200;BME280;33990;44.602;10.976;2022-08-01T01:02:07;100898.47;;;27.79;44.60
48200;BME280;33990;44.602;10.976;2022-08-01T01:04:42;100895.75;;;27.79;44.61
48200;BME280;33990;44.602;10.976;2022-08-01T01:07:21;100902.06;;;27.79;44.39
48200;BME280;33990;44.602;10.976;2022-08-01T01:09:57;100903.06;;;27.78;44.62
48200;BME280;33990;44.602;10.976;2022-08-01T01:12:38;100906.63;;;27.79;44.88
48200;BME280;33990;44.602;10.976;2022-08-01T01:18:40;100902.22;;;27.78;44.88
48200;BME280;33990;44.602;10.976;2022-08-01T01:26:43;100900.34;;;27.78;44.74
48200;BME280;33990;44.602;10.976;2022-08-01T01:29:17;100898.47;;;27.79;44.96
48200;BME280;33990;44.602;10.976;2022-08-01T01:34:22;100895.75;;;27.79;44.78
48200;BME280;33990;44.602;10.976;2022-08-01T01:36:52;100905.63;;;27.80;44.94
48200;BME280;33990;44.602;10.976;2022-08-01T01:39:24;100902.91;;;27.80;44.91
48200;BME280;33990;44.602;10.976;2022-08-01T01:41:53;100905.63;;;27.80;44.89
48200;BME280;33990;44.602;10.976;2022-08-01T01:44:21;100898.31;;;27.80;45.30
48200;BME280;33990;44.602;10.976;2022-08-01T01:46:49;100899.13;;;27.81;45.28
48200;BME280;33990;44.602;10.976;2022-08-01T01:49:25;100901.88;;;27.81;45.22
48200;BME280;33990;44.602;10.976;2022-08-01T01:51:56;100898.09;;;27.82;45.05
48200;BME280;33990;44.602;10.976;2022-08-01T01:54:40;100904.38;;;27.82;44.95
48200;BME280;33990;44.602;10.976;2022-08-01T01:57:12;100898.94;;;27.82;45.21
48200;BME280;33990;44.602;10.976;2022-08-01T01:59:40;100902.50;;;27.83;45.48
48200;BME280;33990;44.602;10.976;2022-08-01T02:02:09;100907.09;;;27.82;45.19
48200;BME280;33990;44.602;10.976;2022-08-01T02:04:42;100903.38;;;27.83;45.69
48200;BME280;33990;44.602;10.976;2022-08-01T02:07:16;100907.94;;;27.83;45.67
48200;BME280;33990;44.602;10.976;2022-08-01T02:09:45;100899.78;;;27.83;45.67
48200;BME280;33990;44.602;10.976;2022-08-01T02:12:16;100898.78;;;27.84;45.47
48200;BME280;33990;44.602;10.976;2022-08-01T02:14:45;100903.19;;;27.85;45.18
48200;BME280;33990;44.602;10.976;2022-08-01T02:17:17;100900.66;;;27.83;45.64
48200;BME280;33990;44.602;10.976;2022-08-01T02:19:46;100905.22;;;27.83;45.43
48200;BME280;33990;44.602;10.976;2022-08-01T02:22:21;100898.78;;;27.84;45.60
48200;BME280;33990;44.602;10.976;2022-08-01T02:25:09;100903.38;;;27.83;45.68
48200;BME280;33990;44.602;10.976;2022-08-01T02:27:42;100908.81;;;27.83;45.28
48200;BME280;33990;44.602;10.976;2022-08-01T02:30:13;100902.50;;;27.83;45.60
48200;BME280;33990;44.602;10.976;2022-08-01T02:32:46;100902.34;;;27.84;45.65
48200;BME280;33990;44.602;10.976;2022-08-01T02:35:20;100901.50;;;27.84;45.41
48200;BME280;33990;44.602;10.976;2022-08-01T02:37:49;100898.78;;;27.84;45.82
48200;BME280;33990;44.602;10.976;2022-08-01T02:40:17;100905.06;;;27.84;45.49
48200;BME280;33990;44.602;10.976;2022-08-01T02:42:47;100904.22;;;27.84;45.30
48200;BME280;33990;44.602;10.976;2022-08-01T02:45:24;100906.94;;;27.84;45.38
48200;BME280;33990;44.602;10.976;2022-08-01T02:47:55;100905.91;;;27.85;45.37
48200;BME280;33990;44.602;10.976;2022-08-01T02:50:24;100905.91;;;27.85;45.78
48200;BME280;33990;44.602;10.976;2022-08-01T02:52:55;100905.06;;;27.84;45.49
48200;BME280;33990;44.602;10.976;2022-08-01T02:55:24;100898.78;;;27.84;45.56
48200;BME280;33990;44.602;10.976;2022-08-01T02:57:54;100903.19;;;27.85;45.72
48200;BME280;33990;44.602;10.976;2022-08-01T03:00:27;100910.50;;;27.84;45.90
48200;BME280;33990;44.602;10.976;2022-08-01T03:02:55;100902.34;;;27.84;46.01
48200;BME280;33990;44.602;10.976;2022-08-01T03:05:25;100905.06;;;27.84;45.90
48200;BME280;33990;44.602;10.976;2022-08-01T03:07:54;100903.19;;;27.85;46.07
48200;BME280;33990;44.602;10.976;2022-08-01T03:10:29;100910.50;;;27.84;45.92
48200;BME280;33990;44.602;10.976;2022-08-01T03:13:00;100913.22;;;27.84;46.45
48200;BME280;33990;44.602;10.976;2022-08-01T03:15:31;100915.09;;;27.84;46.24
48200;BME280;33990;44.602;10.976;2022-08-01T03:17:59;100920.53;;;27.84;46.46
48200;BME280;33990;44.602;10.976;2022-08-01T03:20:30;100912.38;;;27.84;46.16
48200;BME280;33990;44.602;10.976;2022-08-01T03:23:01;100915.94;;;27.84;46.19
48200;BME280;33990;44.602;10.976;2022-08-01T03:25:31;100913.03;;;27.86;46.29
48200;BME280;33990;44.602;10.976;2022-08-01T03:28:02;100913.38;;;27.83;46.01
48200;BME280;33990;44.602;10.976;2022-08-01T03:30:31;100915.50;;;27.73;45.43
48200;BME280;33990;44.602;10.976;2022-08-01T03:32:59;100917.28;;;27.66;45.05
48200;BME280;33990;44.602;10.976;2022-08-01T03:35:30;100923.84;;;27.56;44.94
48200;BME280;33990;44.602;10.976;2022-08-01T03:38:00;100917.06;;;27.52;44.77
48200;BME280;33990;44.602;10.976;2022-08-01T03:40:48;100929.53;;;27.47;44.56
48200;BME280;33990;44.602;10.976;2022-08-01T03:45:52;100918.72;;;27.39;44.15
48200;BME280;33990;44.602;10.976;2022-08-01T03:48:26;100925.00;;;27.39;44.19
48200;BME280;33990;44.602;10.976;2022-08-01T03:50:55;100920.59;;;27.38;44.27
48200;BME280;33990;44.602;10.976;2022-08-01T03:53:28;100922.47;;;27.38;43.91
48200;BME280;33990;44.602;10.976;2022-08-01T03:56:00;100921.63;;;27.37;43.87
48200;BME280;33990;44.602;10.976;2022-08-01T03:58:29;100923.31;;;27.38;43.86
48200;BME280;33990;44.602;10.976;2022-08-01T04:00:58;100929.78;;;27.37;43.87
48200;BME280;33990;44.602;10.976;2022-08-01T04:03:25;100927.25;;;27.35;43.88
48200;BME280;33990;44.602;10.976;2022-08-01T04:05:53;100933.53;;;27.36;44.18
48200;BME280;33990;44.602;10.976;2022-08-01T04:08:20;100934.56;;;27.35;44.51
48200;BME280;33990;44.602;10.976;2022-08-01T04:10:56;100928.94;;;27.36;44.88
48200;BME280;33990;44.602;10.976;2022-08-01T04:13:25;100930.81;;;27.36;45.19
48200;BME280;33990;44.602;10.976;2022-08-01T04:16:03;100932.84;;;27.34;45.09
48200;BME280;33990;44.602;10.976;2022-08-01T04:18:30;100935.09;;;27.30;45.63
48200;BME280;33990;44.602;10.976;2022-08-01T04:20:57;100935.63;;;27.26;45.77
48200;BME280;33990;44.602;10.976;2022-08-01T04:23:27;100939.75;;;27.22;45.69
48200;BME280;33990;44.602;10.976;2022-08-01T04:25:57;100937.41;;;27.19;45.62
48200;BME280;33990;44.602;10.976;2022-08-01T04:28:27;100929.78;;;27.14;45.58
48200;BME280;33990;44.602;10.976;2022-08-01T04:30:57;100928.09;;;27.13;45.24
48200;BME280;33990;44.602;10.976;2022-08-01T04:33:29;100931.66;;;27.14;45.21
48200;BME280;33990;44.602;10.976;2022-08-01T04:35:59;100936.09;;;27.15;44.65
48200;BME280;33990;44.602;10.976;2022-08-01T04:38:33;100938.59;;;27.16;44.52
48200;BME280;33990;44.602;10.976;2022-08-01T04:41:02;100936.72;;;27.17;44.43
48200;BME280;33990;44.602;10.976;2022-08-01T04:43:36;100936.09;;;27.15;44.81
48200;BME280;33990;44.602;10.976;2022-08-01T04:46:05;100950.69;;;27.14;45.73
48200;BME280;33990;44.602;10.976;2022-08-01T04:48:36;100941.53;;;27.15;45.93
48200;BME280;33990;44.602;10.976;2022-08-01T04:51:09;100951.50;;;27.14;46.19
48200;BME280;33990;44.602;10.976;2022-08-01T04:53:38;100953.41;;;27.14;46.09
48200;BME280;33990;44.602;10.976;2022-08-01T04:56:05;100948.78;;;27.14;45.71
48200;BME280;33990;44.602;10.976;2022-08-01T04:58:33;100952.38;;;27.15;45.85
48200;BME280;33990;44.602;10.976;2022-08-01T05:01:00;100956.94;;;27.14;45.53
48200;BME280;33990;44.602;10.976;2022-08-01T05:03:28;100954.06;;;27.16;45.36
48200;BME280;33990;44.602;10.976;2022-08-01T05:05:55;100953.03;;;27.17;45.39
48200;BME280;33990;44.602;10.976;2022-08-01T05:08:22;100956.59;;;27.17;45.44
48200;BME280;33990;44.602;10.976;2022-08-01T05:10:50;100955.75;;;27.17;45.64
48200;BME280;33990;44.602;10.976;2022-08-01T05:13:17;100956.59;;;27.17;45.34
48200;BME280;33990;44.602;10.976;2022-08-01T05:15:44;100961.53;;;27.14;45.01
48200;BME280;33990;44.602;10.976;2022-08-01T05:18:12;100956.50;;;27.10;45.46
48200;BME280;33990;44.602;10.976;2022-08-01T05:20:40;100955.78;;;27.08;45.45
48200;BME280;33990;44.602;10.976;2022-08-01T05:23:08;100953.91;;;27.09;45.48
48200;BME280;33990;44.602;10.976;2022-08-01T05:25:37;100962.25;;;27.07;45.34
48200;BME280;33990;44.602;10.976;2022-08-01T05:28:24;100959.22;;;27.02;45.05
48200;BME280;33990;44.602;10.976;2022-08-01T05:30:51;100966.69;;;27.00;44.80
48200;BME280;33990;44.602;10.976;2022-08-01T05:33:22;100969.78;;;26.97;44.53
48200;BME280;33990;44.602;10.976;2022-08-01T05:35:49;100968.94;;;26.97;44.73
48200;BME280;33990;44.602;10.976;2022-08-01T05:38:17;100968.78;;;26.98;44.76
48200;BME280;33990;44.602;10.976;2022-08-01T05:40:44;100974.00;;;27.00;45.00
48200;BME280;33990;44.602;10.976;2022-08-01T05:43:11;100976.38;;;27.03;44.82
48200;BME280;33990;44.602;10.976;2022-08-01T05:45:39;100967.00;;;27.05;44.78
48200;BME280;33990;44.602;10.976;2022-08-01T05:48:08;100974.81;;;27.08;44.94
48200;BME280;33990;44.602;10.976;2022-08-01T05:50:35;100972.81;;;27.10;44.86
48200;BME280;33990;44.602;10.976;2022-08-01T05:53:03;100968.00;;;27.13;44.77
48200;BME280;33990;44.602;10.976;2022-08-01T05:55:30;100969.69;;;27.14;44.91
48200;BME280;33990;44.602;10.976;2022-08-01T05:57:58;100970.38;;;27.16;44.64
48200;BME280;33990;44.602;10.976;2022-08-01T06:00:25;100968.69;;;27.15;44.77
48200;BME280;33990;44.602;10.976;2022-08-01T06:02:52;100976.66;;;27.16;44.56
48200;BME280;33990;44.602;10.976;2022-08-01T06:05:20;100964.75;;;27.17;44.73
48200;BME280;33990;44.602;10.976;2022-08-01T06:07:47;100964.75;;;27.17;45.04
48200;BME280;33990;44.602;10.976;2022-08-01T06:10:14;100966.44;;;27.18;44.83
48200;BME280;33990;44.602;10.976;2022-08-01T06:12:42;100969.16;;;27.18;44.55
48200;BME280;33990;44.602;10.976;2022-08-01T06:15:10;100965.78;;;27.16;44.21
48200;BME280;33990;44.602;10.976;2022-08-01T06:17:37;100971.41;;;27.15;44.44
48200;BME280;33990;44.602;10.976;2022-08-01T06:20:06;100974.47;;;27.11;44.61
48200;BME280;33990;44.602;10.976;2022-08-01T06:22:34;100970.09;;;27.10;44.72
48200;BME280;33990;44.602;10.976;2022-08-01T06:25:01;100963.78;;;27.10;44.83
48200;BME280;33990;44.602;10.976;2022-08-01T06:27:29;100966.34;;;27.11;44.74
48200;BME280;33990;44.602;10.976;2022-08-01T06:29:56;100965.28;;;27.13;45.05
48200;BME280;33990;44.602;10.976;2022-08-01T06:32:24;100976.16;;;27.13;45.27
48200;BME280;33990;44.602;10.976;2022-08-01T06:34:54;100969.22;;;27.10;44.87
48200;BME280;33990;44.602;10.976;2022-08-01T06:37:35;100975.84;;;27.07;45.10
48200;BME280;33990;44.602;10.976;2022-08-01T06:40:07;100968.88;;;27.05;45.12
48200;BME280;33990;44.602;10.976;2022-08-01T06:42:41;100972.13;;;27.00;45.08
48200;BME280;33990;44.602;10.976;2022-08-01T06:45:09;100976.59;;;26.93;45.28
48200;BME280;33990;44.602;10.976;2022-08-01T06:47:41;100981.19;;;26.93;45.29
48200;BME280;33990;44.602;10.976;2022-08-01T06:50:10;100972.72;;;26.87;45.44
48200;BME280;33990;44.602;10.976;2022-08-01T06:52:37;100978.34;;;26.86;45.34
48200;BME280;33990;44.602;10.976;2022-08-01T06:55:05;100977.66;;;26.84;45.51
48200;BME280;33990;44.602;10.976;2022-08-01T06:57:32;100979.53;;;26.83;45.78
48200;BME280;33990;44.602;10.976;2022-08-01T07:00:05;100967.63;;;26.84;45.89
48200;BME280;33990;44.602;10.976;2022-08-01T07:02:37;100971.03;;;26.86;45.75
48200;BME280;33990;44.602;10.976;2022-08-01T07:05:05;100972.91;;;26.86;45.77
48200;BME280;33990;44.602;10.976;2022-08-01T07:07:32;100978.16;;;26.87;45.76
48200;BME280;33990;44.602;10.976;2022-08-01T07:09:59;100973.38;;;26.90;45.60
48200;BME280;33990;44.602;10.976;2022-08-01T07:12:27;100969.47;;;26.92;45.37
48200;BME280;33990;44.602;10.976;2022-08-01T07:14:54;100964.03;;;26.92;44.97
48200;BME280;33990;44.602;10.976;2022-08-01T07:17:21;100974.72;;;26.94;45.04
48200;BME280;33990;44.602;10.976;2022-08-01T07:19:49;100969.97;;;26.96;45.10
48200;BME280;33990;44.602;10.976;2022-08-01T07:22:16;100976.03;;;26.98;45.11
48200;BME280;33990;44.602;10.976;2022-08-01T07:24:49;100975.03;;;26.99;44.96
48200;BME280;33990;44.602;10.976;2022-08-01T07:27:21;100979.25;;;27.01;45.15
48200;BME280;33990;44.602;10.976;2022-08-01T07:29:52;100969.06;;;27.03;45.25
48200;BME280;33990;44.602;10.976;2022-08-01T07:32:19;100974.16;;;27.06;45.32
48200;BME280;33990;44.602;10.976;2022-08-01T07:34:47;100969.38;;;27.08;45.33
48200;BME280;33990;44.602;10.976;2022-08-01T07:37:14;100971.94;;;27.10;45.39
48200;BME280;33990;44.602;10.976;2022-08-01T07:39:42;100971.56;;;27.13;44.67
48200;BME280;33990;44.602;10.976;2022-08-01T07:42:09;100970.38;;;27.16;44.74
48200;BME280;33990;44.602;10.976;2022-08-01T07:44:37;100971.03;;;27.18;45.04
48200;BME280;33990;44.602;10.976;2022-08-01T07:47:05;100964.41;;;27.20;44.81
48200;BME280;33990;44.602;10.976;2022-08-01T07:49:33;100968.81;;;27.21;44.98
48200;BME280;33990;44.602;10.976;2022-08-01T07:52:07;100963.00;;;27.24;45.26
48200;BME280;33990;44.602;10.976;2022-08-01T07:54:34;100960.09;;;27.26;45.08
48200;BME280;33990;44.602;10.976;2022-08-01T07:57:03;100962.66;;;27.27;44.98
48200;BME280;33990;44.602;10.976;2022-08-01T07:59:30;100966.88;;;27.30;44.58
48200;BME280;33990;44.602;10.976;2022-08-01T08:01:58;100968.59;;;27.31;44.32
48200;BME280;33990;44.602;10.976;2022-08-01T08:04:26;100969.22;;;27.33;44.77
48200;BME280;33990;44.602;10.976;2022-08-01T08:06:54;100960.88;;;27.34;44.79
48200;BME280;33990;44.602;10.976;2022-08-01T08:09:21;100962.41;;;27.37;44.32
48200;BME280;33990;44.602;10.976;2022-08-01T08:11:49;100957.81;;;27.38;44.29
48200;BME280;33990;44.602;10.976;2022-08-01T08:14:17;100967.47;;;27.40;44.19
48200;BME280;33990;44.602;10.976;2022-08-01T08:16:45;100964.75;;;27.40;44.35
48200;BME280;33990;44.602;10.976;2022-08-01T08:19:12;100963.53;;;27.43;44.49
48200;BME280;33990;44.602;10.976;2022-08-01T08:21:40;100961.84;;;27.42;44.17
48200;BME280;33990;44.602;10.976;2022-08-01T08:24:09;100957.94;;;27.44;44.21
48200;BME280;33990;44.602;10.976;2022-08-01T08:26:55;100961.31;;;27.46;43.86
48200;BME280;33990;44.602;10.976;2022-08-01T08:29:23;100955.84;;;27.46;44.29
48200;BME280;33990;44.602;10.976;2022-08-01T08:31:52;100953.81;;;27.48;44.00
48200;BME280;33990;44.602;10.976;2022-08-01T08:34:20;100955.50;;;27.49;44.30
48200;BME280;33990;44.602;10.976;2022-08-01T08:36:49;100956.34;;;27.50;44.26
48200;BME280;33990;44.602;10.976;2022-08-01T08:39:17;100971.47;;;27.52;44.56
48200;BME280;33990;44.602;10.976;2022-08-01T08:41:46;100964.13;;;27.53;44.38
48200;BME280;33990;44.602;10.976;2022-08-01T08:44:17;100963.09;;;27.54;44.01
48200;BME280;33990;44.602;10.976;2022-08-01T08:46:50;100954.94;;;27.54;43.90
48200;BME280;33990;44.602;10.976;2022-08-01T08:49:26;100954.59;;;27.57;44.53
48200;BME280;33990;44.602;10.976;2022-08-01T08:52:03;100959.84;;;27.58;44.32
48200;BME280;33990;44.602;10.976;2022-08-01T08:54:35;100961.56;;;27.59;44.45
48200;BME280;33990;44.602;10.976;2022-08-01T08:57:04;100962.19;;;27.61;44.35
48200;BME280;33990;44.602;10.976;2022-08-01T08:59:32;100954.03;;;27.61;44.76
48200;BME280;33990;44.602;10.976;2022-08-01T09:01:59;100952.16;;;27.62;44.38
48200;BME280;33990;44.602;10.976;2022-08-01T09:04:27;100961.16;;;27.63;44.52
48200;BME280;33990;44.602;10.976;2022-08-01T09:06:54;100962.88;;;27.64;44.34
48200;BME280;33990;44.602;10.976;2022-08-01T09:09:23;100954.50;;;27.65;44.08
48200;BME280;33990;44.602;10.976;2022-08-01T09:11:50;100949.91;;;27.66;44.30
48200;BME280;33990;44.602;10.976;2022-08-01T09:14:25;100955.34;;;27.66;44.18
48200;BME280;33990;44.602;10.976;2022-08-01T09:17:08;100960.44;;;27.69;43.98
48200;BME280;33990;44.602;10.976;2022-08-01T09:19:42;100948.53;;;27.70;44.48
48200;BME280;33990;44.602;10.976;2022-08-01T09:22:13;100951.06;;;27.71;44.15
48200;BME280;33990;44.602;10.976;2022-08-01T09:25:07;100951.75;;;27.73;43.95
48200;BME280;33990;44.602;10.976;2022-08-01T09:27:37;100942.56;;;27.74;43.78
48200;BME280;33990;44.602;10.976;2022-08-01T09:35:32;100944.72;;;27.79;44.31
48200;BME280;33990;44.602;10.976;2022-08-01T09:38:17;100942.66;;;27.81;44.64
48200;BME280;33990;44.602;10.976;2022-08-01T09:40:57;100936.38;;;27.80;44.83
48200;BME280;33990;44.602;10.976;2022-08-01T09:43:35;100940.59;;;27.83;44.86
48200;BME280;33990;44.602;10.976;2022-08-01T09:46:11;100940.59;;;27.83;44.59
48200;BME280;33990;44.602;10.976;2022-08-01T09:48:38;100930.75;;;27.82;44.73
48200;BME280;33990;44.602;10.976;2022-08-01T09:51:30;100937.72;;;27.84;45.41
48200;BME280;33990;44.602;10.976;2022-08-01T09:54:31;100934.97;;;27.84;44.93
48200;BME280;33990;44.602;10.976;2022-08-01T09:57:19;100933.09;;;27.85;44.73
48200;BME280;33990;44.602;10.976;2022-08-01T09:59:52;100929.81;;;27.90;44.16
48200;BME280;33990;44.602;10.976;2022-08-01T10:03:00;100928.63;;;27.92;44.64
48200;BME280;33990;44.602;10.976;2022-08-01T10:05:46;100924.84;;;27.93;45.00
48200;BME280;33990;44.602;10.976;2022-08-01T10:08:16;100917.72;;;27.92;45.11
48200;BME280;33990;44.602;10.976;2022-08-01T10:11:08;100917.53;;;27.94;45.37
48200;BME280;33990;44.602;10.976;2022-08-01T10:13:38;100917.72;;;27.92;45.91
48200;BME280;33990;44.602;10.976;2022-08-01T10:16:07;100913.13;;;27.93;45.86
48200;BME280;33990;44.602;10.976;2022-08-01T10:18:35;100915.00;;;27.92;46.26
48200;BME280;33990;44.602;10.976;2022-08-01T10:21:04;100904.97;;;27.93;46.30
48200;BME280;33990;44.602;10.976;2022-08-01T10:23:37;100899.53;;;27.93;46.26
48200;BME280;33990;44.602;10.976;2022-08-01T10:26:07;100897.66;;;27.93;45.85
48200;BME280;33990;44.602;10.976;2022-08-01T10:28:37;100899.31;;;27.94;46.05
48200;BME280;33990;44.602;10.976;2022-08-01T10:31:07;100891.38;;;27.93;46.09
48200;BME280;33990;44.602;10.976;2022-08-01T10:33:40;100895.97;;;27.92;45.91
48200;BME280;33990;44.602;10.976;2022-08-01T10:36:20;100899.31;;;27.94;45.29
48200;BME280;33990;44.602;10.976;2022-08-01T10:38:49;100892.00;;;27.95;45.73
48200;BME280;33990;44.602;10.976;2022-08-01T10:41:18;100888.44;;;27.94;45.18
48200;BME280;33990;44.602;10.976;2022-08-01T10:43:46;100883.84;;;27.95;45.55
48200;BME280;33990;44.602;10.976;2022-08-01T10:46:14;100879.25;;;27.95;45.47
48200;BME280;33990;44.602;10.976;2022-08-01T10:51:14;100874.66;;;27.96;44.82
48200;BME280;33990;44.602;10.976;2022-08-01T10:53:52;100870.06;;;27.96;45.07
48200;BME280;33990;44.602;10.976;2022-08-01T10:56:22;100872.59;;;27.98;44.89
48200;BME280;33990;44.602;10.976;2022-08-01T10:59:24;100860.88;;;27.97;45.25
48200;BME280;33990;44.602;10.976;2022-08-01T11:02:29;100862.53;;;27.98;45.88
48200;BME280;33990;44.602;10.976;2022-08-01T11:05:05;100863.38;;;27.99;45.92
48200;BME280;33990;44.602;10.976;2022-08-01T11:10:25;100852.34;;;28.00;45.69
48200;BME280;33990;44.602;10.976;2022-08-01T11:12:55;100854.22;;;28.00;46.03
48200;BME280;33990;44.602;10.976;2022-08-01T11:15:24;100848.56;;;28.01;46.22
48200;BME280;33990;44.602;10.976;2022-08-01T11:17:58;100845.84;;;28.01;45.92
48200;BME280;33990;44.602;10.976;2022-08-01T11:20:31;100840.41;;;28.01;45.96
48200;BME280;33990;44.602;10.976;2022-08-01T11:28:27;100832.03;;;28.03;45.86
48200;BME280;33990;44.602;10.976;2022-08-01T11:38:46;100811.09;;;28.03;46.11
48200;BME280;33990;44.602;10.976;2022-08-01T11:41:25;100806.53;;;28.04;46.48
48200;BME280;33990;44.602;10.976;2022-08-01T11:44:07;100814.69;;;28.04;47.39
48200;BME280;33990;44.602;10.976;2022-08-01T11:46:47;100804.81;;;28.03;47.66
48200;BME280;33990;44.602;10.976;2022-08-01T11:52:07;100804.81;;;28.03;51.35
48200;BME280;33990;44.602;10.976;2022-08-01T11:57:10;100796.88;;;28.01;52.31
48200;BME280;33990;44.602;10.976;2022-08-01T11:59:40;100794.34;;;28.00;51.53
48200;BME280;33990;44.602;10.976;2022-08-01T12:02:38;100792.47;;;28.00;51.92
48200;BME280;33990;44.602;10.976;2022-08-01T12:05:07;100791.63;;;28.00;51.37
48200;BME280;33990;44.602;10.976;2022-08-01T12:07:38;100777.16;;;27.99;52.89
48200;BME280;33990;44.602;10.976;2022-08-01T12:10:14;100782.59;;;27.99;51.51
48200;BME280;33990;44.602;10.976;2022-08-01T12:12:48;100778.03;;;28.00;51.80
48200;BME280;33990;44.602;10.976;2022-08-01T12:15:16;100783.47;;;28.00;52.74
48200;BME280;33990;44.602;10.976;2022-08-01T12:20:28;100766.25;;;27.99;52.20
48200;BME280;33990;44.602;10.976;2022-08-01T12:22:59;100763.53;;;27.99;52.84
48200;BME280;33990;44.602;10.976;2022-08-01T12:25:27;100759.13;;;27.98;51.92
48200;BME280;33990;44.602;10.976;2022-08-01T12:27:55;100756.25;;;28.00;52.36
48200;BME280;33990;44.602;10.976;2022-08-01T12:30:30;100759.81;;;28.00;51.88
48200;BME280;33990;44.602;10.976;2022-08-01T12:32:58;100751.66;;;28.00;51.99
48200;BME280;33990;44.602;10.976;2022-08-01T12:35:27;100757.94;;;28.01;52.37
48200;BME280;33990;44.602;10.976;2022-08-01T12:38:00;100754.38;;;28.00;52.67
48200;BME280;33990;44.602;10.976;2022-08-01T12:40:32;100751.66;;;28.00;53.05
48200;BME280;33990;44.602;10.976;2022-08-01T12:43:08;100753.31;;;28.01;52.46
48200;BME280;33990;44.602;10.976;2022-08-01T12:45:43;100747.88;;;28.01;52.52
48200;BME280;33990;44.602;10.976;2022-08-01T12:48:24;100748.72;;;28.02;52.29
48200;BME280;33990;44.602;10.976;2022-08-01T12:50:52;100747.03;;;28.01;52.14
48200;BME280;33990;44.602;10.976;2022-08-01T12:53:21;100742.44;;;28.01;52.07
48200;BME280;33990;44.602;10.976;2022-08-01T12:55:54;100739.72;;;28.01;52.05
48200;BME280;33990;44.602;10.976;2022-08-01T12:58:33;100739.72;;;28.01;51.00
48200;BME280;33990;44.602;10.976;2022-08-01T13:01:05;100748.50;;;28.03;51.92
48200;BME280;33990;44.602;10.976;2022-08-01T13:03:33;100743.94;;;28.04;51.63
48200;BME280;33990;44.602;10.976;2022-08-01T13:06:10;100740.34;;;28.03;51.44
48200;BME280;33990;44.602;10.976;2022-08-01T13:08:37;100729.28;;;28.05;51.33
48200;BME280;33990;44.602;10.976;2022-08-01T13:11:13;100730.97;;;28.06;51.10
48200;BME280;33990;44.602;10.976;2022-08-01T13:13:54;100730.13;;;28.05;50.96
48200;BME280;33990;44.602;10.976;2022-08-01T13:16:25;100721.97;;;28.05;50.58
48200;BME280;33990;44.602;10.976;2022-08-01T13:19:13;100718.22;;;28.06;50.34
48200;BME280;33990;44.602;10.976;2022-08-01T13:21:54;100719.03;;;28.07;50.51
48200;BME280;33990;44.602;10.976;2022-08-01T13:24:29;100709.00;;;28.07;50.50
48200;BME280;33990;44.602;10.976;2022-08-01T13:26:58;100718.22;;;28.06;50.55
48200;BME280;33990;44.602;10.976;2022-08-01T13:29:38;100710.72;;;28.08;50.64
48200;BME280;33990;44.602;10.976;2022-08-01T13:35:06;100706.94;;;28.09;49.82
48200;BME280;33990;44.602;10.976;2022-08-01T13:37:40;100708.63;;;28.10;49.88
48200;BME280;33990;44.602;10.976;2022-08-01T13:40:09;100704.88;;;28.12;49.81
48200;BME280;33990;44.602;10.976;2022-08-01T13:42:37;100700.47;;;28.10;49.60
48200;BME280;33990;44.602;10.976;2022-08-01T13:45:05;100700.28;;;28.12;49.97
48200;BME280;33990;44.602;10.976;2022-08-01T13:47:44;100691.28;;;28.12;50.16
48200;BME280;33990;44.602;10.976;2022-08-01T13:50:31;100693.13;;;28.11;50.47